createdAt,value
2023-03-22T00:02:17.484Z,9.60
2023-03-22T00:04:45.717Z,9.59
2023-03-22T00:07:13.678Z,9.54
2023-03-22T00:09:41.551Z,9.53
2023-03-22T00:12:09.476Z,9.58
2023-03-22T00:14:37.592Z,9.58
2023-03-22T00:17:05.542Z,9.54
2023-03-22T00:19:34.401Z,9.53
2023-03-22T00:22:03.621Z,9.51
2023-03-22T00:24:32.016Z,9.50
2023-03-22T00:27:00.898Z,9.48
2023-03-22T00:29:28.769Z,9.52
2023-03-22T00:31:56.596Z,9.53
2023-03-22T00:34:24.528Z,9.50
2023-03-22T00:36:52.465Z,9.45
2023-03-22T00:39:21.053Z,9.43
2023-03-22T00:41:49.040Z,9.42
2023-03-22T00:44:17.072Z,9.42
2023-03-22T00:46:46.397Z,9.41
2023-03-22T00:49:15.141Z,9.40
2023-03-22T00:51:43.075Z,9.43
2023-03-22T00:54:12.038Z,9.44
2023-03-22T00:56:39.897Z,9.42
2023-03-22T00:59:14.395Z,9.41
2023-03-22T01:01:43.506Z,9.41
2023-03-22T01:04:18.101Z,9.40
2023-03-22T01:06:47.249Z,9.39
2023-03-22T01:09:15.467Z,9.39
2023-03-22T01:11:44.032Z,9.44
2023-03-22T01:14:14.125Z,9.43
2023-03-22T01:16:42.254Z,9.40
2023-03-22T01:19:10.659Z,9.33
2023-03-22T01:21:38.905Z,9.25
2023-03-22T01:24:06.992Z,9.22
2023-03-22T01:26:35.922Z,9.23
2023-03-22T01:29:04.222Z,9.20
2023-03-22T01:31:32.176Z,9.19
2023-03-22T01:34:00.231Z,9.17
2023-03-22T01:36:28.718Z,9.12
2023-03-22T01:38:57.217Z,9.06
2023-03-22T01:41:25.948Z,9.03
2023-03-22T01:44:23.146Z,9.00
2023-03-22T01:46:52.445Z,8.96
2023-03-22T01:49:26.096Z,8.91
2023-03-22T01:51:58.250Z,8.90
2023-03-22T01:54:44.944Z,8.91
2023-03-22T01:57:29.592Z,8.90
2023-03-22T02:00:00.805Z,8.87
2023-03-22T02:02:51.025Z,8.88
2023-03-22T02:05:27.719Z,8.85
2023-03-22T02:07:56.895Z,8.84
2023-03-22T02:10:27.921Z,8.88
2023-03-22T02:13:09.044Z,8.91
2023-03-22T02:15:52.704Z,8.94
2023-03-22T02:19:31.814Z,8.94
2023-03-22T02:22:06.639Z,8.92
2023-03-22T02:24:45.926Z,8.88
2023-03-22T02:27:25.856Z,8.82
2023-03-22T02:30:18.221Z,8.79
2023-03-22T02:32:58.757Z,8.78
2023-03-22T02:36:12.728Z,8.79
2023-03-22T02:39:04.909Z,8.80
2023-03-22T02:42:06.620Z,8.77
2023-03-22T02:44:41.048Z,8.80
2023-03-22T02:47:12.114Z,8.82
2023-03-22T02:49:47.768Z,8.79
2023-03-22T02:52:27.184Z,8.73
2023-03-22T02:55:18.478Z,8.64
2023-03-22T02:58:00.305Z,8.58
2023-03-22T03:00:31.182Z,8.50
2023-03-22T03:03:11.408Z,8.42
2023-03-22T03:05:43.579Z,8.34
2023-03-22T03:08:16.530Z,8.27
2023-03-22T03:10:46.312Z,8.25
2023-03-22T03:13:17.278Z,8.23
2023-03-22T03:15:48.771Z,8.19
2023-03-22T03:18:32.537Z,8.15
2023-03-22T03:21:45.307Z,8.13
2023-03-22T03:24:39.957Z,8.08
2023-03-22T03:27:23.029Z,8.03
2023-03-22T03:30:11.601Z,7.99
2023-03-22T03:32:52.714Z,7.96
2023-03-22T03:35:23.080Z,7.93
2023-03-22T03:37:57.698Z,7.87
2023-03-22T03:40:37.758Z,7.84
2023-03-22T03:43:07.306Z,7.81
2023-03-22T03:45:37.268Z,7.76
2023-03-22T03:48:11.828Z,7.71
2023-03-22T03:50:40.356Z,7.70
2023-03-22T03:53:08.916Z,7.68
2023-03-22T03:55:37.788Z,7.68
2023-03-22T03:58:06.295Z,7.68
2023-03-22T04:00:34.416Z,7.62
2023-03-22T04:03:31.830Z,7.60
2023-03-22T04:06:19.921Z,7.49
2023-03-22T04:08:53.853Z,7.44
2023-03-22T04:11:25.634Z,7.36
2023-03-22T04:13:56.984Z,7.31
2023-03-22T04:16:25.186Z,7.27
2023-03-22T04:18:53.831Z,7.22
2023-03-22T04:21:22.939Z,7.18
2023-03-22T04:23:57.209Z,7.16
2023-03-22T04:26:26.784Z,7.16
2023-03-22T04:29:14.398Z,7.11
2023-03-22T04:31:45.805Z,7.09
2023-03-22T04:34:49.310Z,7.12
2023-03-22T04:37:20.054Z,7.09
2023-03-22T04:39:54.455Z,7.07
2023-03-22T04:42:59.008Z,7.03
2023-03-22T04:45:37.543Z,7.03
2023-03-22T04:48:07.941Z,7.03
2023-03-22T04:50:38.538Z,7.05
2023-03-22T04:53:08.191Z,7.04
2023-03-22T04:55:36.186Z,7.00
2023-03-22T04:58:04.449Z,7.01
2023-03-22T05:00:32.354Z,7.04
2023-03-22T05:03:04.091Z,7.01
2023-03-22T05:05:40.935Z,7.02
2023-03-22T05:08:08.950Z,7.01
2023-03-22T05:10:41.175Z,7.02
2023-03-22T05:13:09.900Z,7.01
2023-03-22T05:15:42.744Z,7.03
2023-03-22T05:18:14.434Z,7.03
2023-03-22T05:20:43.609Z,7.01
2023-03-22T05:23:21.136Z,7.05
2023-03-22T05:25:53.538Z,7.05
2023-03-22T05:28:22.288Z,7.05
2023-03-22T05:31:11.950Z,7.10
2023-03-22T05:33:48.514Z,7.09
2023-03-22T05:36:20.512Z,7.10
2023-03-22T05:39:09.088Z,7.12
2023-03-22T05:41:37.249Z,7.14
2023-03-22T05:44:05.658Z,7.18
2023-03-22T05:46:34.500Z,7.24
2023-03-22T05:49:26.910Z,7.32
2023-03-22T05:51:55.303Z,7.35
2023-03-22T05:54:25.447Z,7.36
2023-03-22T05:56:55.787Z,7.40
2023-03-22T05:59:24.204Z,7.42
2023-03-22T06:01:52.756Z,7.47
2023-03-22T06:04:23.657Z,7.52
2023-03-22T06:06:56.514Z,7.58
2023-03-22T06:09:43.066Z,7.61
2023-03-22T06:12:17.392Z,7.69
2023-03-22T06:14:48.489Z,7.77
2023-03-22T06:17:32.853Z,7.86
2023-03-22T06:20:00.751Z,7.95
2023-03-22T06:22:30.626Z,8.04
2023-03-22T06:24:59.133Z,8.13
2023-03-22T06:27:35.598Z,8.25
2023-03-22T06:30:04.490Z,8.34
2023-03-22T06:32:34.998Z,8.45
2023-03-22T06:35:04.721Z,8.50
2023-03-22T06:37:32.772Z,8.58
2023-03-22T06:40:01.032Z,8.67
2023-03-22T06:42:31.039Z,8.71
2023-03-22T06:45:09.666Z,8.81
2023-03-22T06:47:40.024Z,8.90
2023-03-22T06:50:27.377Z,9.02
2023-03-22T06:53:08.792Z,9.11
2023-03-22T06:55:36.776Z,9.19
2023-03-22T06:58:22.269Z,9.27
2023-03-22T07:00:50.217Z,9.35
2023-03-22T07:03:19.680Z,9.43
2023-03-22T07:05:51.977Z,9.52
2023-03-22T07:08:19.988Z,9.60
2023-03-22T07:10:51.724Z,9.68
2023-03-22T07:13:22.233Z,9.77
2023-03-22T07:15:56.761Z,9.86
2023-03-22T07:18:35.962Z,9.95
2023-03-22T07:21:04.122Z,10.05
2023-03-22T07:23:32.497Z,10.14
2023-03-22T07:26:06.407Z,10.23
2023-03-22T07:28:35.813Z,10.34
2023-03-22T07:31:07.908Z,10.42
2023-03-22T07:33:45.446Z,10.50
2023-03-22T07:36:13.428Z,10.60
2023-03-22T07:38:42.010Z,10.70
2023-03-22T07:41:14.062Z,10.78
2023-03-22T07:44:04.822Z,10.89
2023-03-22T07:46:43.717Z,11.00
2023-03-22T07:49:37.810Z,11.10
2023-03-22T07:52:10.983Z,11.18
2023-03-22T07:54:39.161Z,11.27
2023-03-22T07:57:08.689Z,11.38
2023-03-22T07:59:41.425Z,11.47
2023-03-22T08:02:11.230Z,11.54
2023-03-22T08:04:43.668Z,11.63
2023-03-22T08:07:18.672Z,11.71
2023-03-22T08:09:47.431Z,11.80
2023-03-22T08:12:16.186Z,11.89
2023-03-22T08:14:50.580Z,11.99
2023-03-22T08:17:21.321Z,12.16
2023-03-22T08:19:50.177Z,12.29
2023-03-22T08:22:29.709Z,12.39
2023-03-22T08:25:17.996Z,12.49
2023-03-22T08:27:46.343Z,12.57
2023-03-22T08:30:16.110Z,12.66
2023-03-22T08:32:46.457Z,12.74
2023-03-22T08:35:14.631Z,12.81
2023-03-22T08:37:43.031Z,12.89
2023-03-22T08:40:12.145Z,12.98
2023-03-22T08:42:49.067Z,13.07
2023-03-22T08:45:17.471Z,13.14
2023-03-22T08:47:51.260Z,13.18
2023-03-22T08:50:23.435Z,13.24
2023-03-22T08:52:58.104Z,13.33
2023-03-22T08:55:35.529Z,13.43
2023-03-22T08:58:13.758Z,13.53
2023-03-22T09:01:02.514Z,13.63
2023-03-22T09:03:48.979Z,13.68
2023-03-22T09:06:17.006Z,13.74
2023-03-22T09:08:45.726Z,13.79
2023-03-22T09:11:17.808Z,13.88
2023-03-22T09:13:48.848Z,13.97
2023-03-22T09:16:17.931Z,14.05
2023-03-22T09:18:46.801Z,14.09
2023-03-22T09:21:19.161Z,14.14
2023-03-22T09:24:14.204Z,14.27
2023-03-22T09:26:47.570Z,14.37
2023-03-22T09:29:19.670Z,14.39
2023-03-22T09:31:49.106Z,14.38
2023-03-22T09:34:23.309Z,14.38
2023-03-22T09:36:55.764Z,14.39
2023-03-22T09:39:28.786Z,14.40
2023-03-22T09:42:02.481Z,14.37
2023-03-22T09:44:37.597Z,14.34
2023-03-22T09:47:15.571Z,14.36
2023-03-22T09:49:53.896Z,14.40
2023-03-22T09:52:22.785Z,14.49
2023-03-22T09:54:52.868Z,14.57
2023-03-22T09:57:37.598Z,14.63
2023-03-22T10:00:21.788Z,14.71
2023-03-22T10:02:56.294Z,14.77
2023-03-22T10:05:33.250Z,14.82
2023-03-22T10:08:35.304Z,14.85
2023-03-22T10:11:10.082Z,14.91
2023-03-22T10:13:50.147Z,14.94
2023-03-22T10:16:33.367Z,14.92
2023-03-22T10:19:13.372Z,14.89
2023-03-22T10:21:41.963Z,14.91
2023-03-22T10:24:18.297Z,14.93
2023-03-22T10:26:47.898Z,14.99
2023-03-22T10:29:38.518Z,15.04
2023-03-22T10:32:25.188Z,15.11
2023-03-22T10:34:53.094Z,15.14
2023-03-22T10:37:27.021Z,15.14
2023-03-22T10:39:58.258Z,15.18
2023-03-22T10:42:29.985Z,15.18
2023-03-22T10:45:01.892Z,15.24
2023-03-22T10:47:41.449Z,15.29
2023-03-22T10:50:18.832Z,15.36
2023-03-22T10:53:11.398Z,15.40
2023-03-22T10:55:44.186Z,15.41
2023-03-22T10:58:18.150Z,15.45
2023-03-22T11:00:56.972Z,15.55
2023-03-22T11:03:49.479Z,15.57
2023-03-22T11:06:27.223Z,15.58
2023-03-22T11:09:12.614Z,15.56
2023-03-22T11:11:57.607Z,15.53
2023-03-22T11:14:31.551Z,15.63
2023-03-22T11:17:07.957Z,15.60
2023-03-22T11:19:42.317Z,15.59
2023-03-22T11:22:23.027Z,15.60
2023-03-22T11:24:52.032Z,15.56
2023-03-22T11:27:24.617Z,15.51
2023-03-22T11:29:57.908Z,15.51
2023-03-22T11:32:35.490Z,15.51
2023-03-22T11:35:27.245Z,15.56
2023-03-22T11:37:56.664Z,15.61
2023-03-22T11:40:34.022Z,15.67
2023-03-22T11:43:19.556Z,15.73
2023-03-22T11:45:53.459Z,15.78
2023-03-22T11:48:24.637Z,15.86
2023-03-22T11:51:04.735Z,15.93
2023-03-22T11:53:37.244Z,15.92
2023-03-22T11:56:07.715Z,15.94
2023-03-22T11:58:38.435Z,15.95
2023-03-22T12:01:11.073Z,16.00
2023-03-22T12:03:43.303Z,16.09
2023-03-22T12:06:33.610Z,16.14
2023-03-22T12:09:23.441Z,16.19
2023-03-22T12:11:55.862Z,16.26
2023-03-22T12:14:26.462Z,16.27
2023-03-22T12:17:33.150Z,16.25
2023-03-22T12:20:07.164Z,16.31
2023-03-22T12:22:41.737Z,16.35
2023-03-22T12:25:17.487Z,16.36
2023-03-22T12:27:51.156Z,16.39
2023-03-22T12:30:33.848Z,16.43
2023-03-22T12:33:06.839Z,16.45
2023-03-22T12:35:39.378Z,16.47
2023-03-22T12:38:19.626Z,16.49
2023-03-22T12:40:53.707Z,16.54
2023-03-22T12:43:45.871Z,16.51
2023-03-22T12:46:25.721Z,16.44
2023-03-22T12:49:13.488Z,16.43
2023-03-22T12:51:44.160Z,16.50
2023-03-22T12:54:14.802Z,16.59
2023-03-22T12:56:46.015Z,16.66
2023-03-22T12:59:23.460Z,16.71
2023-03-22T13:02:32.836Z,16.69
2023-03-22T13:05:06.763Z,16.59
2023-03-22T13:07:51.596Z,16.56
2023-03-22T13:10:36.308Z,16.52
2023-03-22T13:13:12.980Z,16.53
2023-03-22T13:15:56.110Z,16.55
2023-03-22T13:18:37.811Z,16.57
2023-03-22T13:21:21.324Z,16.56
2023-03-22T13:24:10.029Z,16.60
2023-03-22T13:26:52.976Z,16.64
2023-03-22T13:29:25.428Z,16.64
2023-03-22T13:32:02.095Z,16.61
2023-03-22T13:34:36.259Z,16.61
2023-03-22T13:37:22.978Z,16.57
2023-03-22T13:39:52.138Z,16.55
2023-03-22T13:42:22.491Z,16.56
2023-03-22T13:44:59.202Z,16.58
2023-03-22T13:47:36.307Z,16.58
2023-03-22T13:50:31.583Z,16.57
2023-03-22T13:53:05.873Z,16.59
2023-03-22T13:55:51.905Z,16.65
2023-03-22T13:58:36.246Z,16.68
2023-03-22T14:01:28.205Z,16.65
2023-03-22T14:04:03.382Z,16.61
2023-03-22T14:06:35.359Z,16.60
2023-03-22T14:09:22.932Z,16.59
2023-03-22T14:12:02.140Z,16.57
2023-03-22T14:14:36.736Z,16.53
2023-03-22T14:17:18.477Z,16.49
2023-03-22T14:19:47.777Z,16.50
